createdAt,value
2016-10-24T00:03:24.062Z,-71
2016-10-24T00:08:20.355Z,-71
2016-10-24T00:13:17.317Z,-71
2016-10-24T00:18:13.500Z,-71
2016-10-24T00:23:09.948Z,-71
2016-10-24T00:28:06.379Z,-70
2016-10-24T00:33:02.904Z,-70
2016-10-24T00:37:59.341Z,-71
2016-10-24T00:42:55.812Z,-71
2016-10-24T00:47:52.254Z,-72
2016-10-24T00:52:49.211Z,-72
2016-10-24T00:57:45.402Z,-71
2016-10-24T01:02:42.128Z,-70
2016-10-24T01:07:38.698Z,-71
2016-10-24T01:12:34.865Z,-71
2016-10-24T01:17:31.265Z,-71
2016-10-24T01:22:27.545Z,-71
2016-10-24T01:27:25.687Z,-72
2016-10-24T01:32:21.860Z,-71
2016-10-24T01:37:18.313Z,-70
2016-10-24T01:42:14.678Z,-72
2016-10-24T01:47:11.112Z,-71
2016-10-24T01:52:07.721Z,-71
2016-10-24T01:57:04.290Z,-71
2016-10-24T02:02:01.325Z,-72
2016-10-24T02:06:57.918Z,-71
2016-10-24T02:11:54.654Z,-70
2016-10-24T02:16:51.761Z,-70
2016-10-24T02:21:48.807Z,-71
2016-10-24T02:26:45.259Z,-71
2016-10-24T02:31:41.951Z,-73
2016-10-24T02:36:38.337Z,-71
2016-10-24T02:41:35.851Z,-71
2016-10-24T02:46:32.226Z,-72
2016-10-24T02:51:28.950Z,-71
2016-10-24T02:56:25.159Z,-71
2016-10-24T03:01:21.563Z,-70
2016-10-24T03:06:18.163Z,-70
2016-10-24T03:11:15.318Z,-71
2016-10-24T03:16:11.898Z,-70
2016-10-24T03:21:08.458Z,-71
2016-10-24T03:26:04.729Z,-71
2016-10-24T03:31:01.095Z,-73
2016-10-24T03:35:57.409Z,-71
2016-10-24T03:40:53.944Z,-71
2016-10-24T03:45:50.540Z,-71
2016-10-24T03:50:47.144Z,-72
2016-10-24T03:55:43.787Z,-76
2016-10-24T04:00:40.700Z,-72
2016-10-24T04:05:37.171Z,-72
2016-10-24T04:10:33.631Z,-71
2016-10-24T04:15:30.066Z,-71
2016-10-24T04:20:26.661Z,-70
2016-10-24T04:25:23.135Z,-71
2016-10-24T04:30:19.609Z,-71
2016-10-24T04:35:16.076Z,-73
2016-10-24T04:40:13.231Z,-71
2016-10-24T04:45:09.830Z,-73
2016-10-24T04:50:06.939Z,-71
2016-10-24T04:55:03.297Z,-71
2016-10-24T04:59:59.694Z,-71
2016-10-24T05:04:56.170Z,-72
2016-10-24T05:09:52.365Z,-75
2016-10-24T05:14:48.923Z,-76
2016-10-24T05:19:45.696Z,-75
2016-10-24T05:24:42.849Z,-75
2016-10-24T05:29:39.142Z,-75
2016-10-24T05:34:35.705Z,-74
2016-10-24T05:39:32.397Z,-77
2016-10-24T05:44:28.735Z,-77
2016-10-24T05:49:25.192Z,-75
2016-10-24T05:54:21.627Z,-74
2016-10-24T05:59:18.115Z,-74
2016-10-24T06:04:15.050Z,-74
2016-10-24T06:09:11.474Z,-71
2016-10-24T06:14:07.965Z,-72
2016-10-24T06:19:04.473Z,-72
2016-10-24T06:24:01.118Z,-73
2016-10-24T06:28:57.246Z,-74
2016-10-24T06:33:53.715Z,-72
2016-10-24T06:38:50.519Z,-73
2016-10-24T06:43:47.033Z,-74
2016-10-24T06:48:44.057Z,-72
2016-10-24T06:53:40.716Z,-73
2016-10-24T06:58:38.924Z,-74
2016-10-24T07:03:35.129Z,-72
2016-10-24T07:08:32.286Z,-77
2016-10-24T07:13:29.627Z,-72
2016-10-24T07:18:26.083Z,-72
2016-10-24T07:23:22.552Z,-75
2016-10-24T07:28:19.324Z,-72
2016-10-24T07:33:15.318Z,-70
2016-10-24T07:38:12.726Z,-72
2016-10-24T07:43:09.683Z,-71
2016-10-24T07:48:06.056Z,-72
2016-10-24T07:53:02.582Z,-72
2016-10-24T07:57:59.118Z,-69
2016-10-24T08:02:55.784Z,-71
2016-10-24T08:07:52.333Z,-69
2016-10-24T08:12:48.909Z,-70
2016-10-24T08:17:45.427Z,-70
2016-10-24T08:22:42.133Z,-70
2016-10-24T08:27:38.830Z,-71
2016-10-24T08:32:34.827Z,-70
2016-10-24T08:37:31.239Z,-71
2016-10-24T08:42:28.030Z,-71
2016-10-24T08:47:24.521Z,-69
2016-10-24T08:52:21.066Z,-70
2016-10-24T08:57:18.048Z,-69
2016-10-24T09:02:15.696Z,-70
2016-10-24T09:07:12.193Z,-71
2016-10-24T09:12:09.812Z,-70
2016-10-24T09:17:06.263Z,-67
2016-10-24T09:27:05.936Z,-69
2016-10-24T09:32:02.458Z,-70
2016-10-24T09:36:58.976Z,-69
2016-10-24T09:41:55.408Z,-66
2016-10-24T09:46:51.933Z,-68
2016-10-24T09:51:48.576Z,-69
2016-10-24T09:56:45.448Z,-68
2016-10-24T10:01:42.203Z,-69
2016-10-24T10:06:39.072Z,-70
2016-10-24T10:11:36.139Z,-69
2016-10-24T10:16:32.588Z,-69
2016-10-24T10:21:29.127Z,-68
2016-10-24T10:26:25.678Z,-72
2016-10-24T10:31:22.454Z,-70
2016-10-24T10:36:19.906Z,-70
2016-10-24T10:46:20.101Z,-70
2016-10-24T10:51:16.081Z,-71
2016-10-24T10:56:12.768Z,-69
2016-10-24T11:01:10.544Z,-70
2016-10-24T11:06:06.999Z,-69
2016-10-24T11:11:03.584Z,-70
2016-10-24T11:16:00.187Z,-70
2016-10-24T11:20:56.627Z,-70
2016-10-24T11:25:53.277Z,-68
2016-10-24T11:30:49.809Z,-70
2016-10-24T11:35:46.551Z,-69
2016-10-24T11:40:43.269Z,-70
2016-10-24T11:45:40.469Z,-75
2016-10-24T11:50:36.520Z,-71
2016-10-24T11:55:33.043Z,-71
2016-10-24T12:00:30.166Z,-70
2016-10-24T12:10:29.439Z,-71
2016-10-24T12:15:26.181Z,-72
2016-10-24T12:25:25.647Z,-71
2016-10-24T12:40:32.262Z,-72
2016-10-24T12:45:30.359Z,-70
2016-10-24T12:50:26.450Z,-70
2016-10-24T12:55:24.658Z,-71
2016-10-24T13:00:20.966Z,-72
2016-10-24T13:05:17.980Z,-70
2016-10-24T13:10:14.790Z,-72
2016-10-24T13:15:12.451Z,-74
2016-10-24T13:20:08.990Z,-73
2016-10-24T13:25:05.230Z,-72
2016-10-24T13:30:01.803Z,-71
2016-10-24T13:34:59.502Z,-73
2016-10-24T13:39:55.595Z,-74
2016-10-24T13:44:52.053Z,-77
2016-10-24T13:49:48.884Z,-74
2016-10-24T13:54:45.064Z,-71
2016-10-24T13:59:41.528Z,-74
2016-10-24T14:04:37.891Z,-74
2016-10-24T14:09:34.242Z,-74
2016-10-24T14:14:30.651Z,-74
2016-10-24T14:19:26.938Z,-75
2016-10-24T14:24:23.287Z,-70
2016-10-24T14:29:19.414Z,-70
2016-10-24T14:34:16.326Z,-71
2016-10-24T14:39:12.928Z,-71
2016-10-24T14:44:09.412Z,-71
2016-10-24T14:49:06.170Z,-72
2016-10-24T14:54:02.763Z,-73
2016-10-24T14:58:59.153Z,-73
2016-10-24T15:03:58.390Z,-77
2016-10-24T15:08:55.544Z,-76
2016-10-24T15:13:51.674Z,-73
2016-10-24T15:18:48.155Z,-73
2016-10-24T15:23:44.506Z,-70
2016-10-24T15:28:41.114Z,-72
2016-10-24T15:33:37.758Z,-71
2016-10-24T15:38:35.231Z,-69
2016-10-24T15:43:31.456Z,-70
2016-10-24T15:48:28.644Z,-70
2016-10-24T15:53:24.810Z,-70
2016-10-24T15:58:21.162Z,-72
2016-10-24T16:03:17.713Z,-70
2016-10-24T16:08:14.148Z,-70
2016-10-24T16:13:10.684Z,-70
2016-10-24T16:18:07.214Z,-71
2016-10-24T16:23:04.893Z,-70
2016-10-24T16:28:00.959Z,-72
2016-10-24T16:32:57.420Z,-73
2016-10-24T16:37:53.792Z,-71
2016-10-24T16:42:50.205Z,-72
2016-10-24T16:47:46.586Z,-70
2016-10-24T16:52:43.569Z,-72
2016-10-24T16:57:39.975Z,-71
2016-10-24T17:02:36.509Z,-71
2016-10-24T17:07:34.589Z,-73
2016-10-24T17:12:31.059Z,-72
2016-10-24T17:17:27.411Z,-73
2016-10-24T17:22:24.065Z,-71
2016-10-24T17:27:20.890Z,-73
2016-10-24T17:32:17.853Z,-71
2016-10-24T17:37:14.486Z,-70
2016-10-24T17:42:11.774Z,-72
2016-10-24T17:47:08.222Z,-75
2016-10-24T17:52:04.680Z,-74
2016-10-24T17:57:01.310Z,-74
2016-10-24T18:01:57.685Z,-74
2016-10-24T18:06:54.131Z,-75
2016-10-24T18:11:50.283Z,-77
2016-10-24T18:21:52.605Z,-76
2016-10-24T18:26:49.476Z,-75
2016-10-24T18:31:47.072Z,-75
2016-10-24T18:36:43.326Z,-76
2016-10-24T18:41:39.715Z,-75
2016-10-24T18:46:36.686Z,-76
2016-10-24T18:51:35.928Z,-76
2016-10-24T18:56:31.745Z,-73
2016-10-24T19:01:28.270Z,-76
2016-10-24T19:06:24.826Z,-74
2016-10-24T19:11:21.104Z,-76
2016-10-24T19:16:17.614Z,-75
2016-10-24T19:21:14.139Z,-74
2016-10-24T19:26:11.721Z,-75
2016-10-24T19:31:08.240Z,-75
2016-10-24T19:36:05.262Z,-76
2016-10-24T19:41:02.329Z,-76
2016-10-24T19:45:59.385Z,-76
2016-10-24T19:50:55.888Z,-78
2016-10-24T19:55:52.451Z,-78
2016-10-24T20:00:49.400Z,-76
2016-10-24T20:05:45.810Z,-76
2016-10-24T20:10:42.932Z,-77
2016-10-24T20:15:39.430Z,-76
2016-10-24T20:20:35.986Z,-75
2016-10-24T20:25:33.589Z,-77
2016-10-24T20:30:29.457Z,-75
2016-10-24T20:35:25.851Z,-79
2016-10-24T20:45:22.610Z,-77
2016-10-24T20:50:20.232Z,-76
2016-10-24T20:55:16.569Z,-76
2016-10-24T21:00:12.950Z,-76
2016-10-24T21:05:09.359Z,-77
2016-10-24T21:10:05.987Z,-77
2016-10-24T21:15:03.450Z,-78
2016-10-24T21:19:59.597Z,-76
2016-10-24T21:24:56.673Z,-77
2016-10-24T21:29:52.992Z,-76
2016-10-24T21:34:49.554Z,-79
2016-10-24T21:39:45.913Z,-77
2016-10-24T21:44:42.435Z,-79
2016-10-24T21:49:38.835Z,-78
2016-10-24T21:54:36.434Z,-81
2016-10-24T21:59:32.689Z,-77
2016-10-24T22:04:29.421Z,-78
2016-10-24T22:09:25.871Z,-80
2016-10-24T22:14:25.034Z,-79
2016-10-24T22:19:21.779Z,-81
2016-10-24T22:24:17.988Z,-77
2016-10-24T22:29:14.679Z,-80
2016-10-24T22:34:11.478Z,-80
2016-10-24T22:39:07.935Z,-79
2016-10-24T22:44:04.292Z,-78
2016-10-24T22:49:01.357Z,-79
2016-10-24T22:53:57.795Z,-79
2016-10-24T22:58:54.394Z,-80
2016-10-24T23:03:51.894Z,-79
2016-10-24T23:08:48.455Z,-80
2016-10-24T23:13:45.021Z,-80
2016-10-24T23:18:41.132Z,-78
2016-10-24T23:23:38.314Z,-78
2016-10-24T23:28:34.699Z,-78
2016-10-24T23:33:31.498Z,-76
2016-10-24T23:38:28.104Z,-77
2016-10-24T23:43:24.579Z,-78
2016-10-24T23:48:22.153Z,-78
2016-10-24T23:53:18.495Z,-77
2016-10-24T23:58:15.137Z,-79
